Weather History for North Wilkesboro, NC

Change the Weather History Date:

Tuesday, January 31, 2012

  Actual Average Record
Temperature  
Mean Temperature 47 °F -  
Max Temperature 66 °F 51 °F 127 °F (2001)
Min Temperature 28 °F 24 °F -5 °F (1966)
Degree Days  
Heating Degree Days 18    
Moisture  
Dew Point 27 °F    
Average Humidity 50    
Maximum Humidity 86    
Minimum Humidity 26    
Precipitation  
Precipitation 0.00 in - - ()
Sea Level Pressure  
Sea Level Pressure 30.30 in    
Wind  
Wind Speed - (North)    
Max Wind Speed -    
Max Gust Speed -    
Visibility 10 miles    
Events      
Averages and records for this station are not official NWS values.
T = Trace of Precipitation, MM = Missing Value Source: NWS Daily Summary

Daily Weather History Graph

Daily Weather History Graph

Search for Another Location

Airport:

Trip Planner

Search our weather history database for the weather conditions in past years. The results will help you decide how hot, cold, wet, or windy it might be!

Date:

Astronomy

Jan. 31, 2012 Rise Set
Actual Time 7:26 AM EST 5:49 PM EST
Civil Twilight 6:59 AM EST 6:16 PM EST
Nautical Twilight 6:28 AM EST 6:47 PM EST
Astronomical Twilight 5:58 AM EST 7:17 PM EST
Moon 11:40 AM EST (1/31) 1:12 AM EST (1/31)
Length of Visible Light 11h 17m
Length of Day
10h 22m
First Quarter, 55% of the Moon is Illuminated
Jan 31
First Quarter
Feb 7
Full
Feb 14
Last Quarter
Feb 21
New
Feb 29
First Quarter

Hourly Weather History & Observations

Time (EST) Temp. Dew Point Humidity Pressure Visibility Wind Dir Wind Speed Gust Speed Precip Events Conditions
12:15 AM 39.2 °F 23.0 °F 52% 30.33 in 10.0 mi North - - N/A   Clear
12:35 AM 37.4 °F 23.0 °F 56% 30.33 in 10.0 mi North - - N/A   Clear
12:55 AM 37.4 °F 23.0 °F 56% 30.33 in 10.0 mi North - - N/A   Clear
1:15 AM 35.6 °F 23.0 °F 60% 30.33 in 10.0 mi North - - N/A   Clear
1:35 AM 35.6 °F 24.8 °F 65% 30.32 in 10.0 mi North - - N/A   Clear
1:55 AM 35.6 °F 24.8 °F 65% 30.32 in 10.0 mi North - - N/A   Clear
2:15 AM 32.0 °F 24.8 °F 75% 30.32 in 10.0 mi North - - N/A   Clear
2:35 AM 32.0 °F 24.8 °F 75% 30.32 in 10.0 mi North - - N/A   Clear
2:55 AM 33.8 °F 24.8 °F 70% 30.32 in 10.0 mi North - - N/A   Clear
3:15 AM 33.8 °F 24.8 °F 70% 30.32 in 10.0 mi North - - N/A   Clear
3:35 AM 32.0 °F 24.8 °F 75% 30.32 in 10.0 mi North - - N/A   Clear
3:55 AM 33.8 °F 24.8 °F 70% 30.32 in 10.0 mi North - - N/A   Clear
4:15 AM 32.0 °F 24.8 °F 75% 30.32 in 10.0 mi North - - N/A   Clear
4:35 AM 30.2 °F 24.8 °F 80% 30.32 in 10.0 mi North - - N/A   Clear
4:55 AM 32.0 °F 24.8 °F 75% 30.32 in 10.0 mi North - - N/A   Clear
5:15 AM 32.0 °F 24.8 °F 75% 30.32 in 10.0 mi North - - N/A   Clear
5:35 AM 28.4 °F 24.8 °F 86% 30.33 in 10.0 mi North - - N/A   Clear
5:55 AM 28.4 °F 24.8 °F 86% 30.33 in 10.0 mi North - - N/A   Clear
6:15 AM 28.4 °F 24.8 °F 86% 30.33 in 10.0 mi North - - N/A   Clear
6:35 AM 28.4 °F 24.8 °F 86% 30.34 in 10.0 mi North - - N/A   Clear
6:55 AM 30.2 °F 23.0 °F 75% 30.34 in 10.0 mi North - - N/A   Clear
7:15 AM 28.4 °F 24.8 °F 86% 30.34 in 10.0 mi North - - N/A   Clear
7:35 AM 28.4 °F 24.8 °F 86% 30.34 in 10.0 mi North - - N/A   Clear
7:55 AM 28.4 °F 24.8 °F 86% 30.34 in 10.0 mi North - - N/A   Clear
8:15 AM 32.0 °F 24.8 °F 75% 30.35 in 10.0 mi North - - N/A   Clear
8:35 AM 35.6 °F 26.6 °F 70% 30.36 in 10.0 mi North - - N/A   Clear
8:55 AM 37.4 °F 28.4 °F 70% 30.36 in 10.0 mi North - - N/A   Clear
9:15 AM 39.2 °F 28.4 °F 65% 30.37 in 10.0 mi North - - N/A   Clear
9:35 AM 42.8 °F 28.4 °F 57% 30.37 in 10.0 mi North - - N/A   Clear
10:15 AM 50.0 °F 28.4 °F 43% 30.36 in 10.0 mi North - - N/A   Clear
10:35 AM 51.8 °F 26.6 °F 38% 30.36 in 10.0 mi North - - N/A   Clear
10:55 AM 53.6 °F 28.4 °F 38% 30.36 in 10.0 mi North - - N/A   Clear
11:15 AM 57.2 °F 28.4 °F 33% 30.35 in 10.0 mi North - - N/A   Clear
11:35 AM 59.0 °F 28.4 °F 31% 30.34 in 10.0 mi North - - N/A   Clear
11:55 AM 60.8 °F 28.4 °F 29% 30.33 in 10.0 mi North - - N/A   Clear
12:15 PM 62.6 °F 30.2 °F 30% 30.31 in 10.0 mi North - - N/A   Clear
12:35 PM 64.4 °F 30.2 °F 28% 30.30 in 10.0 mi North - - N/A   Clear
12:55 PM 64.4 °F 30.2 °F 28% 30.28 in 10.0 mi North - - N/A   Clear
1:15 PM 66.2 °F 32.0 °F 28% 30.27 in 10.0 mi North - - N/A   Clear
1:35 PM 66.2 °F 32.0 °F 28% 30.26 in 10.0 mi North - - N/A   Clear
1:55 PM 66.2 °F 30.2 °F 26% 30.25 in 10.0 mi North - - N/A   Clear
2:15 PM 66.2 °F 32.0 °F 28% 30.24 in 10.0 mi North - - N/A   Clear
2:35 PM 66.2 °F 32.0 °F 28% 30.24 in 10.0 mi North - - N/A   Clear
2:55 PM 66.2 °F 32.0 °F 28% 30.24 in 10.0 mi North - - N/A   Clear
3:15 PM 66.2 °F 30.2 °F 26% 30.24 in 10.0 mi North - - N/A   Clear
3:35 PM 66.2 °F 30.2 °F 26% 30.24 in 10.0 mi North - - N/A   Clear
3:55 PM 66.2 °F 30.2 °F 26% 30.24 in 10.0 mi North - - N/A   Clear
4:15 PM 64.4 °F 30.2 °F 28% 30.24 in 10.0 mi North - - N/A   Clear
4:35 PM 64.4 °F 30.2 °F 28% 30.24 in 10.0 mi North - - N/A   Clear
4:55 PM 64.4 °F 30.2 °F 28% 30.24 in 10.0 mi North - - N/A   Clear
5:15 PM 64.4 °F 30.2 °F 28% 30.24 in 10.0 mi North - - N/A   Clear
5:35 PM 62.6 °F 30.2 °F 30% 30.24 in 10.0 mi North - - N/A   Clear
5:55 PM 60.8 °F 28.4 °F 29% 30.24 in 10.0 mi North - - N/A   Clear
6:15 PM 59.0 °F 28.4 °F 31% 30.24 in 10.0 mi North - - N/A   Clear
6:35 PM 57.2 °F 28.4 °F 33% 30.25 in 10.0 mi North - - N/A   Clear
6:55 PM 57.2 °F 28.4 °F 33% 30.25 in 10.0 mi North - - N/A   Clear
7:15 PM 55.4 °F 28.4 °F 36% 30.26 in 10.0 mi North - - N/A   Clear
7:35 PM 57.2 °F 28.4 °F 33% 30.26 in 10.0 mi North - - N/A   Clear
7:55 PM 55.4 °F 28.4 °F 36% 30.26 in 10.0 mi North - - N/A   Clear
8:15 PM 55.4 °F 26.6 °F 33% 30.26 in 10.0 mi North - - N/A   Clear
8:35 PM 53.6 °F 26.6 °F 35% 30.26 in 10.0 mi North - - N/A   Clear
8:55 PM 53.6 °F 26.6 °F 35% 30.26 in 10.0 mi North - - N/A   Clear
9:15 PM 53.6 °F 26.6 °F 35% 30.26 in 10.0 mi North - - N/A   Clear
9:35 PM 53.6 °F 26.6 °F 35% 30.26 in 10.0 mi North - - N/A   Clear
9:55 PM 51.8 °F 26.6 °F 38% 30.26 in 10.0 mi North - - N/A   Clear
10:15 PM 51.8 °F 26.6 °F 38% 30.26 in 10.0 mi North - - N/A   Clear
10:35 PM 51.8 °F 26.6 °F 38% 30.26 in 10.0 mi North - - N/A   Clear
10:55 PM 48.2 °F 26.6 °F 43% 30.25 in 10.0 mi North - - N/A   Clear
11:15 PM 46.4 °F 28.4 °F 50% 30.25 in 10.0 mi North - - N/A   Clear
11:35 PM 46.4 °F 28.4 °F 50% 30.25 in 10.0 mi North - - N/A   Clear
11:55 PM 46.4 °F 28.4 °F 50% 30.25 in 10.0 mi North - - N/A   Clear